Burden, Kansas
Current Conditions -  °F | °C
As of 10:54 AM on Thursday 23 Oct 2014 (Local Time) from KWLD Reporting Station
Overcast Overcast  
Wind Chill: 64°   Ceiling: 4600
Heat Index: 64°   Visibility: 10mi
Dew Point: 60°   Wind: 9mph
Humidity: 87%   Direction: 190°S
Pressure: 30.13"   Gusts: NA
Location:  37.31°N, 96.75°W
Report Text: KWLD 231554Z AUTO 19008KT 10SM OVC046 18/16 A3013 RMK AO2 SLP198 T01780156
Loading
Personal Weather Stations






























Interactive Weather Map
Tropical Storm Tracking
New forecast layout! Learn more

10-Day Weather Forecast

Advertisements
Track Severe Weather on mobile